createdAt,value
2023-03-31T00:01:01.040Z,11.43
2023-03-31T00:09:07.059Z,10.55
2023-03-31T00:17:15.294Z,10.10
2023-03-31T00:25:21.177Z,8.25
2023-03-31T00:33:29.922Z,8.35
2023-03-31T00:41:36.248Z,8.55
2023-03-31T00:49:48.109Z,6.72
2023-03-31T00:57:56.451Z,6.90
2023-03-31T01:06:10.610Z,6.65
2023-03-31T01:14:16.371Z,4.85
2023-03-31T01:22:53.221Z,5.28
2023-03-31T01:31:32.671Z,4.82
2023-03-31T01:40:05.511Z,5.70
2023-03-31T01:48:18.354Z,4.78
2023-03-31T01:56:34.158Z,4.03
2023-03-31T02:04:43.402Z,5.15
2023-03-31T02:12:53.165Z,4.70
2023-03-31T02:21:01.220Z,4.80
2023-03-31T02:29:09.738Z,5.13
2023-03-31T02:37:16.060Z,4.45
2023-03-31T02:45:50.792Z,5.05
2023-03-31T02:54:10.474Z,5.03
2023-03-31T03:02:46.468Z,4.93
2023-03-31T03:11:04.864Z,4.38
2023-03-31T03:19:13.713Z,4.63
2023-03-31T03:27:19.142Z,5.00
2023-03-31T03:35:28.513Z,4.35
2023-03-31T03:43:34.038Z,5.15
2023-03-31T03:51:42.151Z,4.75
2023-03-31T03:59:47.643Z,5.22
2023-03-31T04:07:55.629Z,4.80
2023-03-31T04:16:01.156Z,4.82
2023-03-31T04:24:11.887Z,4.50
2023-03-31T04:32:21.883Z,5.78
2023-03-31T04:40:30.056Z,5.38
2023-03-31T04:48:35.552Z,5.45
2023-03-31T04:56:43.750Z,5.95
2023-03-31T05:04:49.311Z,5.38
2023-03-31T05:12:57.427Z,5.90
2023-03-31T05:21:12.979Z,6.78
2023-03-31T05:29:21.321Z,6.72
2023-03-31T05:37:27.498Z,7.20
2023-03-31T05:45:35.574Z,7.38
2023-03-31T05:53:42.266Z,8.55
2023-03-31T06:01:50.425Z,9.27
2023-03-31T06:09:56.217Z,10.25
2023-03-31T06:18:04.364Z,8.70
2023-03-31T06:26:12.300Z,9.70
2023-03-31T06:34:21.460Z,9.20
2023-03-31T06:42:27.176Z,8.95
2023-03-31T06:50:35.184Z,8.32
2023-03-31T06:58:40.823Z,10.73
2023-03-31T07:06:48.981Z,9.82
2023-03-31T07:14:54.489Z,9.77
2023-03-31T07:23:02.525Z,9.13
2023-03-31T07:31:14.616Z,9.07
2023-03-31T07:39:22.847Z,7.38
2023-03-31T07:47:28.738Z,8.63
2023-03-31T07:55:36.822Z,7.68
2023-03-31T08:03:42.333Z,8.30
2023-03-31T08:11:50.423Z,7.60
2023-03-31T08:19:55.857Z,7.78
2023-03-31T08:28:03.928Z,9.05
2023-03-31T08:36:11.787Z,8.80
2023-03-31T23:46:06.817Z,10.13
2023-03-31T23:54:12.562Z,8.68
